sensor_id;sensor_type;location;lat;lon;timestamp;pressure;altitude;pressure_sealevel;temperature;humidity
71248;BME280;73325;51.138;6.950;2023-10-13T00:01:19;100809.00;;;17.80;74.33
71248;BME280;73325;51.138;6.950;2023-10-13T00:03:50;100809.00;;;17.80;74.33
71248;BME280;73325;51.138;6.950;2023-10-13T00:06:20;100807.00;;;17.81;74.34
71248;BME280;73325;51.138;6.950;2023-10-13T00:08:49;100806.00;;;17.81;74.34
71248;BME280;73325;51.138;6.950;2023-10-13T00:11:20;100804.00;;;17.81;74.34
71248;BME280;73325;51.138;6.950;2023-10-13T00:13:50;100803.00;;;17.81;74.34
71248;BME280;73325;51.138;6.950;2023-10-13T00:16:21;100801.00;;;17.81;74.34
71248;BME280;73325;51.138;6.950;2023-10-13T00:18:51;100801.00;;;17.81;74.36
71248;BME280;73325;51.138;6.950;2023-10-13T00:21:21;100800.00;;;17.82;74.37
71248;BME280;73325;51.138;6.950;2023-10-13T00:23:51;100798.00;;;17.82;74.37
71248;BME280;73325;51.138;6.950;2023-10-13T00:26:22;100794.00;;;17.82;74.38
71248;BME280;73325;51.138;6.950;2023-10-13T00:28:51;100789.00;;;17.82;74.39
71248;BME280;73325;51.138;6.950;2023-10-13T00:31:21;100784.00;;;17.82;74.40
71248;BME280;73325;51.138;6.950;2023-10-13T00:33:52;100781.00;;;17.82;74.41
71248;BME280;73325;51.138;6.950;2023-10-13T00:36:22;100778.00;;;17.82;74.40
71248;BME280;73325;51.138;6.950;2023-10-13T00:38:52;100775.00;;;17.82;74.42
71248;BME280;73325;51.138;6.950;2023-10-13T00:41:22;100774.00;;;17.82;74.44
71248;BME280;73325;51.138;6.950;2023-10-13T00:43:52;100770.00;;;17.82;74.45
71248;BME280;73325;51.138;6.950;2023-10-13T00:46:22;100767.00;;;17.82;74.46
71248;BME280;73325;51.138;6.950;2023-10-13T00:48:52;100765.00;;;17.82;74.46
71248;BME280;73325;51.138;6.950;2023-10-13T00:51:22;100764.00;;;17.81;74.46
71248;BME280;73325;51.138;6.950;2023-10-13T00:53:52;100762.00;;;17.81;74.48
71248;BME280;73325;51.138;6.950;2023-10-13T00:56:22;100760.00;;;17.81;74.50
71248;BME280;73325;51.138;6.950;2023-10-13T00:58:56;100758.00;;;17.81;74.50
71248;BME280;73325;51.138;6.950;2023-10-13T01:01:23;100755.00;;;17.81;74.52
71248;BME280;73325;51.138;6.950;2023-10-13T01:03:53;100752.00;;;17.81;74.53
71248;BME280;73325;51.138;6.950;2023-10-13T01:06:23;100748.00;;;17.81;74.55
71248;BME280;73325;51.138;6.950;2023-10-13T01:09:05;100744.00;;;17.81;74.58
71248;BME280;73325;51.138;6.950;2023-10-13T01:11:24;100741.00;;;17.81;74.60
71248;BME280;73325;51.138;6.950;2023-10-13T01:13:54;100738.00;;;17.81;74.61
71248;BME280;73325;51.138;6.950;2023-10-13T01:16:24;100736.00;;;17.80;74.64
71248;BME280;73325;51.138;6.950;2023-10-13T01:18:54;100732.00;;;17.80;74.64
71248;BME280;73325;51.138;6.950;2023-10-13T01:21:24;100729.00;;;17.80;74.66
71248;BME280;73325;51.138;6.950;2023-10-13T01:23:54;100727.00;;;17.80;74.66
71248;BME280;73325;51.138;6.950;2023-10-13T01:26:24;100724.00;;;17.80;74.69
71248;BME280;73325;51.138;6.950;2023-10-13T01:28:57;100721.00;;;17.80;74.71
71248;BME280;73325;51.138;6.950;2023-10-13T01:31:24;100718.00;;;17.80;74.72
71248;BME280;73325;51.138;6.950;2023-10-13T01:33:55;100714.00;;;17.80;74.74
71248;BME280;73325;51.138;6.950;2023-10-13T01:36:28;100710.00;;;17.80;74.75
71248;BME280;73325;51.138;6.950;2023-10-13T01:38:55;100708.00;;;17.80;74.76
71248;BME280;73325;51.138;6.950;2023-10-13T01:41:25;100706.00;;;17.80;74.76
71248;BME280;73325;51.138;6.950;2023-10-13T01:43:55;100703.00;;;17.81;74.76
71248;BME280;73325;51.138;6.950;2023-10-13T01:46:25;100701.00;;;17.81;74.78
71248;BME280;73325;51.138;6.950;2023-10-13T01:48:55;100698.00;;;17.81;74.79
71248;BME280;73325;51.138;6.950;2023-10-13T01:51:25;100694.00;;;17.81;74.79
71248;BME280;73325;51.138;6.950;2023-10-13T01:53:55;100689.00;;;17.82;74.77
71248;BME280;73325;51.138;6.950;2023-10-13T01:56:25;100685.00;;;17.82;74.78
71248;BME280;73325;51.138;6.950;2023-10-13T01:58:55;100681.00;;;17.82;74.79
71248;BME280;73325;51.138;6.950;2023-10-13T02:01:33;100678.00;;;17.82;74.77
71248;BME280;73325;51.138;6.950;2023-10-13T02:03:56;100674.00;;;17.83;74.78
71248;BME280;73325;51.138;6.950;2023-10-13T02:06:27;100671.00;;;17.83;74.78
71248;BME280;73325;51.138;6.950;2023-10-13T02:08:56;100667.00;;;17.83;74.77
71248;BME280;73325;51.138;6.950;2023-10-13T02:11:26;100664.00;;;17.84;74.78
71248;BME280;73325;51.138;6.950;2023-10-13T02:13:56;100660.00;;;17.84;74.78
71248;BME280;73325;51.138;6.950;2023-10-13T02:16:26;100658.00;;;17.85;74.78
71248;BME280;73325;51.138;6.950;2023-10-13T02:18:57;100656.00;;;17.85;74.77
71248;BME280;73325;51.138;6.950;2023-10-13T02:21:27;100653.00;;;17.86;74.78
71248;BME280;73325;51.138;6.950;2023-10-13T02:24:00;100651.00;;;17.86;74.77
71248;BME280;73325;51.138;6.950;2023-10-13T02:26:30;100647.00;;;17.87;74.77
71248;BME280;73325;51.138;6.950;2023-10-13T02:28:59;100644.00;;;17.87;74.75
71248;BME280;73325;51.138;6.950;2023-10-13T02:31:28;100640.00;;;17.88;74.77
71248;BME280;73325;51.138;6.950;2023-10-13T02:33:58;100636.00;;;17.88;74.76
71248;BME280;73325;51.138;6.950;2023-10-13T02:36:28;100630.00;;;17.89;74.77
71248;BME280;73325;51.138;6.950;2023-10-13T02:38:58;100628.00;;;17.89;74.74
71248;BME280;73325;51.138;6.950;2023-10-13T02:41:28;100625.00;;;17.90;74.74
71248;BME280;73325;51.138;6.950;2023-10-13T02:43:59;100621.00;;;17.90;74.75
71248;BME280;73325;51.138;6.950;2023-10-13T02:46:29;100616.00;;;17.91;74.75
71248;BME280;73325;51.138;6.950;2023-10-13T02:48:59;100611.00;;;17.91;74.75
71248;BME280;73325;51.138;6.950;2023-10-13T02:51:29;100606.00;;;17.92;74.75
71248;BME280;73325;51.138;6.950;2023-10-13T02:53:59;100604.00;;;17.92;74.75
71248;BME280;73325;51.138;6.950;2023-10-13T02:56:29;100601.00;;;17.93;74.75
71248;BME280;73325;51.138;6.950;2023-10-13T02:58:59;100599.00;;;17.93;74.76
71248;BME280;73325;51.138;6.950;2023-10-13T03:01:29;100596.00;;;17.94;74.76
71248;BME280;73325;51.138;6.950;2023-10-13T03:03:59;100594.00;;;17.94;74.75
71248;BME280;73325;51.138;6.950;2023-10-13T03:06:30;100592.00;;;17.95;74.77
71248;BME280;73325;51.138;6.950;2023-10-13T03:09:01;100588.00;;;17.95;74.76
71248;BME280;73325;51.138;6.950;2023-10-13T03:11:30;100583.00;;;17.96;74.77
71248;BME280;73325;51.138;6.950;2023-10-13T03:14:00;100580.00;;;17.96;74.76
71248;BME280;73325;51.138;6.950;2023-10-13T03:16:30;100576.00;;;17.97;74.78
71248;BME280;73325;51.138;6.950;2023-10-13T03:19:00;100573.00;;;17.97;74.78
71248;BME280;73325;51.138;6.950;2023-10-13T03:21:30;100569.00;;;17.97;74.78
71248;BME280;73325;51.138;6.950;2023-10-13T03:24:00;100566.00;;;17.98;74.78
71248;BME280;73325;51.138;6.950;2023-10-13T03:26:30;100561.00;;;17.98;74.80
71248;BME280;73325;51.138;6.950;2023-10-13T03:29:00;100557.00;;;17.99;74.79
71248;BME280;73325;51.138;6.950;2023-10-13T03:31:30;100553.00;;;17.99;74.80
71248;BME280;73325;51.138;6.950;2023-10-13T03:34:00;100549.00;;;17.99;74.81
71248;BME280;73325;51.138;6.950;2023-10-13T03:36:30;100545.00;;;18.00;74.82
71248;BME280;73325;51.138;6.950;2023-10-13T03:39:00;100539.00;;;18.00;74.82
71248;BME280;73325;51.138;6.950;2023-10-13T03:41:30;100534.00;;;18.00;74.82
71248;BME280;73325;51.138;6.950;2023-10-13T03:44:00;100529.00;;;18.01;74.85
71248;BME280;73325;51.138;6.950;2023-10-13T03:46:30;100525.00;;;18.01;74.86
71248;BME280;73325;51.138;6.950;2023-10-13T03:49:00;100521.00;;;18.01;74.87
71248;BME280;73325;51.138;6.950;2023-10-13T03:51:30;100519.00;;;18.02;74.88
71248;BME280;73325;51.138;6.950;2023-10-13T03:54:00;100516.00;;;18.02;74.87
71248;BME280;73325;51.138;6.950;2023-10-13T03:56:30;100513.00;;;18.02;74.88
71248;BME280;73325;51.138;6.950;2023-10-13T03:59:00;100509.00;;;18.03;74.91
71248;BME280;73325;51.138;6.950;2023-10-13T04:01:30;100504.00;;;18.03;74.92
71248;BME280;73325;51.138;6.950;2023-10-13T04:04:01;100500.00;;;18.03;74.93
71248;BME280;73325;51.138;6.950;2023-10-13T04:06:31;100497.00;;;18.03;74.95
71248;BME280;73325;51.138;6.950;2023-10-13T04:09:01;100495.00;;;18.03;74.96
71248;BME280;73325;51.138;6.950;2023-10-13T04:11:31;100494.00;;;18.04;74.98
71248;BME280;73325;51.138;6.950;2023-10-13T04:14:01;100492.00;;;18.04;74.99
71248;BME280;73325;51.138;6.950;2023-10-13T04:16:31;100491.00;;;18.04;75.01
71248;BME280;73325;51.138;6.950;2023-10-13T04:19:01;100489.00;;;18.04;75.03
71248;BME280;73325;51.138;6.950;2023-10-13T04:21:31;100488.00;;;18.04;75.03
71248;BME280;73325;51.138;6.950;2023-10-13T04:24:01;100488.00;;;18.04;75.06
71248;BME280;73325;51.138;6.950;2023-10-13T04:26:31;100488.00;;;18.04;75.07
71248;BME280;73325;51.138;6.950;2023-10-13T04:29:01;100486.00;;;18.04;75.10
71248;BME280;73325;51.138;6.950;2023-10-13T04:31:31;100483.00;;;18.04;75.10
71248;BME280;73325;51.138;6.950;2023-10-13T04:34:01;100481.00;;;18.04;75.12
71248;BME280;73325;51.138;6.950;2023-10-13T04:36:31;100477.00;;;18.04;75.15
71248;BME280;73325;51.138;6.950;2023-10-13T04:39:02;100473.00;;;18.04;75.17
71248;BME280;73325;51.138;6.950;2023-10-13T04:41:34;100469.00;;;18.05;75.17
71248;BME280;73325;51.138;6.950;2023-10-13T04:44:02;100465.00;;;18.05;75.18
71248;BME280;73325;51.138;6.950;2023-10-13T04:46:32;100461.00;;;18.04;75.21
71248;BME280;73325;51.138;6.950;2023-10-13T04:49:03;100456.00;;;18.05;75.22
71248;BME280;73325;51.138;6.950;2023-10-13T04:51:33;100451.00;;;18.05;75.24
71248;BME280;73325;51.138;6.950;2023-10-13T04:54:03;100446.00;;;18.05;75.25
71248;BME280;73325;51.138;6.950;2023-10-13T04:56:33;100441.00;;;18.05;75.28
71248;BME280;73325;51.138;6.950;2023-10-13T04:59:03;100437.00;;;18.05;75.27
71248;BME280;73325;51.138;6.950;2023-10-13T05:01:33;100435.00;;;18.05;75.30
71248;BME280;73325;51.138;6.950;2023-10-13T05:04:03;100431.00;;;18.05;75.29
71248;BME280;73325;51.138;6.950;2023-10-13T05:06:33;100429.00;;;18.06;75.30
71248;BME280;73325;51.138;6.950;2023-10-13T05:09:03;100426.00;;;18.06;75.33
71248;BME280;73325;51.138;6.950;2023-10-13T05:11:33;100424.00;;;18.06;75.32
71248;BME280;73325;51.138;6.950;2023-10-13T05:14:04;100421.00;;;18.07;75.33
71248;BME280;73325;51.138;6.950;2023-10-13T05:16:34;100421.00;;;18.07;75.33
71248;BME280;73325;51.138;6.950;2023-10-13T05:19:03;100421.00;;;18.07;75.36
71248;BME280;73325;51.138;6.950;2023-10-13T05:21:36;100420.00;;;18.08;75.37
71248;BME280;73325;51.138;6.950;2023-10-13T05:24:05;100421.00;;;18.08;75.36
71248;BME280;73325;51.138;6.950;2023-10-13T05:26:35;100421.00;;;18.09;75.37
71248;BME280;73325;51.138;6.950;2023-10-13T05:29:05;100421.00;;;18.09;75.36
71248;BME280;73325;51.138;6.950;2023-10-13T05:31:35;100420.00;;;18.10;75.40
71248;BME280;73325;51.138;6.950;2023-10-13T05:34:05;100419.00;;;18.10;75.38
71248;BME280;73325;51.138;6.950;2023-10-13T05:36:37;100419.00;;;18.11;75.39
71248;BME280;73325;51.138;6.950;2023-10-13T05:39:05;100419.00;;;18.11;75.41
71248;BME280;73325;51.138;6.950;2023-10-13T05:41:35;100420.00;;;18.12;75.41
71248;BME280;73325;51.138;6.950;2023-10-13T05:44:05;100421.00;;;18.12;75.43
71248;BME280;73325;51.138;6.950;2023-10-13T05:46:35;100424.00;;;18.13;75.44
71248;BME280;73325;51.138;6.950;2023-10-13T05:49:07;100426.00;;;18.14;75.44
71248;BME280;73325;51.138;6.950;2023-10-13T05:51:36;100429.00;;;18.14;75.46
71248;BME280;73325;51.138;6.950;2023-10-13T05:54:06;100434.00;;;18.15;75.46
71248;BME280;73325;51.138;6.950;2023-10-13T05:56:36;100436.00;;;18.15;75.47
71248;BME280;73325;51.138;6.950;2023-10-13T05:59:06;100438.00;;;18.16;75.48
71248;BME280;73325;51.138;6.950;2023-10-13T06:01:36;100439.00;;;18.17;75.48
71248;BME280;73325;51.138;6.950;2023-10-13T06:04:06;100440.00;;;18.17;75.49
71248;BME280;73325;51.138;6.950;2023-10-13T06:06:36;100442.00;;;18.18;75.49
71248;BME280;73325;51.138;6.950;2023-10-13T06:09:06;100443.00;;;18.18;75.50
71248;BME280;73325;51.138;6.950;2023-10-13T06:11:36;100443.00;;;18.19;75.51
71248;BME280;73325;51.138;6.950;2023-10-13T06:14:06;100444.00;;;18.20;75.52
71248;BME280;73325;51.138;6.950;2023-10-13T06:16:36;100445.00;;;18.20;75.53
71248;BME280;73325;51.138;6.950;2023-10-13T06:19:06;100446.00;;;18.21;75.55
71248;BME280;73325;51.138;6.950;2023-10-13T06:21:36;100447.00;;;18.22;75.54
71248;BME280;73325;51.138;6.950;2023-10-13T06:24:07;100446.00;;;18.22;75.56
71248;BME280;73325;51.138;6.950;2023-10-13T06:26:37;100443.00;;;18.23;75.57
71248;BME280;73325;51.138;6.950;2023-10-13T06:31:37;100435.00;;;18.24;75.59
71248;BME280;73325;51.138;6.950;2023-10-13T06:34:07;100430.00;;;18.25;75.59
71248;BME280;73325;51.138;6.950;2023-10-13T06:36:37;100426.00;;;18.26;75.61
71248;BME280;73325;51.138;6.950;2023-10-13T06:39:07;100422.00;;;18.26;75.62
71248;BME280;73325;51.138;6.950;2023-10-13T06:41:37;100418.00;;;18.27;75.61
71248;BME280;73325;51.138;6.950;2023-10-13T06:44:07;100413.00;;;18.28;75.63
71248;BME280;73325;51.138;6.950;2023-10-13T06:46:37;100404.00;;;18.28;75.63
71248;BME280;73325;51.138;6.950;2023-10-13T06:49:07;100394.00;;;18.29;75.64
71248;BME280;73325;51.138;6.950;2023-10-13T06:51:37;100384.00;;;18.30;75.65
71248;BME280;73325;51.138;6.950;2023-10-13T06:54:07;100374.00;;;18.31;75.65
71248;BME280;73325;51.138;6.950;2023-10-13T06:56:37;100365.00;;;18.32;75.64
71248;BME280;73325;51.138;6.950;2023-10-13T06:59:08;100358.00;;;18.33;75.67
71248;BME280;73325;51.138;6.950;2023-10-13T07:01:38;100358.00;;;18.34;75.67
71248;BME280;73325;51.138;6.950;2023-10-13T07:04:08;100359.00;;;18.35;75.66
71248;BME280;73325;51.138;6.950;2023-10-13T07:06:39;100360.00;;;18.36;75.69
71248;BME280;73325;51.138;6.950;2023-10-13T07:09:08;100361.00;;;18.37;75.67
71248;BME280;73325;51.138;6.950;2023-10-13T07:11:39;100362.00;;;18.38;75.68
71248;BME280;73325;51.138;6.950;2023-10-13T07:14:08;100360.00;;;18.40;75.69
71248;BME280;73325;51.138;6.950;2023-10-13T07:16:56;100361.00;;;18.41;75.69
71248;BME280;73325;51.138;6.950;2023-10-13T07:19:09;100359.00;;;18.43;75.70
71248;BME280;73325;51.138;6.950;2023-10-13T07:21:39;100357.00;;;18.44;75.71
71248;BME280;73325;51.138;6.950;2023-10-13T07:24:09;100355.00;;;18.46;75.71
71248;BME280;73325;51.138;6.950;2023-10-13T07:26:39;100354.00;;;18.47;75.72
71248;BME280;73325;51.138;6.950;2023-10-13T07:29:10;100353.00;;;18.49;75.74
71248;BME280;73325;51.138;6.950;2023-10-13T07:31:40;100351.00;;;18.51;75.73
71248;BME280;73325;51.138;6.950;2023-10-13T07:34:10;100350.00;;;18.53;75.73
71248;BME280;73325;51.138;6.950;2023-10-13T07:36:40;100349.00;;;18.55;75.76
71248;BME280;73325;51.138;6.950;2023-10-13T07:39:10;100346.00;;;18.57;75.77
71248;BME280;73325;51.138;6.950;2023-10-13T07:41:40;100344.00;;;18.59;75.77
71248;BME280;73325;51.138;6.950;2023-10-13T07:44:40;100344.00;;;18.61;75.79
71248;BME280;73325;51.138;6.950;2023-10-13T07:46:40;100344.00;;;18.63;75.80
71248;BME280;73325;51.138;6.950;2023-10-13T07:49:10;100343.00;;;18.65;75.83
71248;BME280;73325;51.138;6.950;2023-10-13T07:51:40;100340.00;;;18.67;75.83
71248;BME280;73325;51.138;6.950;2023-10-13T07:54:12;100339.00;;;18.69;75.85
71248;BME280;73325;51.138;6.950;2023-10-13T07:56:40;100338.00;;;18.72;75.85
71248;BME280;73325;51.138;6.950;2023-10-13T07:59:11;100335.00;;;18.74;75.87
71248;BME280;73325;51.138;6.950;2023-10-13T08:01:40;100332.00;;;18.77;75.88
71248;BME280;73325;51.138;6.950;2023-10-13T08:04:11;100330.00;;;18.80;75.88
71248;BME280;73325;51.138;6.950;2023-10-13T08:06:41;100328.00;;;18.82;75.90
71248;BME280;73325;51.138;6.950;2023-10-13T08:09:14;100325.00;;;18.85;75.91
71248;BME280;73325;51.138;6.950;2023-10-13T08:11:43;100322.00;;;18.88;75.92
71248;BME280;73325;51.138;6.950;2023-10-13T08:14:12;100321.00;;;18.91;75.90
71248;BME280;73325;51.138;6.950;2023-10-13T08:16:42;100317.00;;;18.95;75.92
71248;BME280;73325;51.138;6.950;2023-10-13T08:19:13;100314.00;;;18.98;75.93
71248;BME280;73325;51.138;6.950;2023-10-13T08:21:43;100310.00;;;19.01;75.91
71248;BME280;73325;51.138;6.950;2023-10-13T08:24:14;100308.00;;;19.05;75.93
71248;BME280;73325;51.138;6.950;2023-10-13T08:26:46;100306.00;;;19.08;75.93
71248;BME280;73325;51.138;6.950;2023-10-13T08:29:14;100306.00;;;19.11;75.93
71248;BME280;73325;51.138;6.950;2023-10-13T08:31:48;100305.00;;;19.15;75.95
71248;BME280;73325;51.138;6.950;2023-10-13T08:34:18;100304.00;;;19.18;75.95
71248;BME280;73325;51.138;6.950;2023-10-13T08:36:46;100304.00;;;19.21;75.95
71248;BME280;73325;51.138;6.950;2023-10-13T08:39:16;100303.00;;;19.25;75.95
71248;BME280;73325;51.138;6.950;2023-10-13T08:41:46;100303.00;;;19.28;75.97
71248;BME280;73325;51.138;6.950;2023-10-13T08:44:16;100302.00;;;19.32;75.97
71248;BME280;73325;51.138;6.950;2023-10-13T08:46:47;100303.00;;;19.36;75.99
71248;BME280;73325;51.138;6.950;2023-10-13T08:49:17;100302.00;;;19.41;75.98
71248;BME280;73325;51.138;6.950;2023-10-13T08:51:49;100301.00;;;19.45;75.97
71248;BME280;73325;51.138;6.950;2023-10-13T08:54:23;100299.00;;;19.51;75.98
71248;BME280;73325;51.138;6.950;2023-10-13T08:56:49;100297.00;;;19.57;75.96
71248;BME280;73325;51.138;6.950;2023-10-13T08:59:19;100295.00;;;19.63;75.92
71248;BME280;73325;51.138;6.950;2023-10-13T09:01:49;100292.00;;;19.70;75.92
71248;BME280;73325;51.138;6.950;2023-10-13T09:04:19;100289.00;;;19.78;75.89
71248;BME280;73325;51.138;6.950;2023-10-13T09:06:55;100287.00;;;19.86;75.86
71248;BME280;73325;51.138;6.950;2023-10-13T09:09:20;100285.00;;;19.94;75.83
71248;BME280;73325;51.138;6.950;2023-10-13T09:11:50;100282.00;;;20.03;75.79
71248;BME280;73325;51.138;6.950;2023-10-13T09:14:20;100279.00;;;20.12;75.77
71248;BME280;73325;51.138;6.950;2023-10-13T09:16:50;100277.00;;;20.21;75.73
71248;BME280;73325;51.138;6.950;2023-10-13T09:19:20;100274.00;;;20.31;75.70
71248;BME280;73325;51.138;6.950;2023-10-13T09:21:50;100269.00;;;20.40;75.66
71248;BME280;73325;51.138;6.950;2023-10-13T09:24:20;100263.00;;;20.49;75.64
71248;BME280;73325;51.138;6.950;2023-10-13T09:26:50;100258.00;;;20.58;75.61
71248;BME280;73325;51.138;6.950;2023-10-13T09:29:20;100253.00;;;20.67;75.57
71248;BME280;73325;51.138;6.950;2023-10-13T09:32:03;100249.00;;;20.76;75.54
71248;BME280;73325;51.138;6.950;2023-10-13T09:34:21;100246.00;;;20.85;75.50
71248;BME280;73325;51.138;6.950;2023-10-13T09:36:51;100243.00;;;20.93;75.48
71248;BME280;73325;51.138;6.950;2023-10-13T09:39:24;100240.00;;;21.02;75.46
71248;BME280;73325;51.138;6.950;2023-10-13T09:41:52;100238.00;;;21.11;75.43
71248;BME280;73325;51.138;6.950;2023-10-13T09:44:22;100235.00;;;21.20;75.40
71248;BME280;73325;51.138;6.950;2023-10-13T09:46:53;100231.00;;;21.30;75.36
71248;BME280;73325;51.138;6.950;2023-10-13T09:49:27;100226.00;;;21.39;75.34
71248;BME280;73325;51.138;6.950;2023-10-13T09:51:54;100223.00;;;21.49;75.32
71248;BME280;73325;51.138;6.950;2023-10-13T09:54:33;100221.00;;;21.58;75.30
71248;BME280;73325;51.138;6.950;2023-10-13T09:57:04;100217.00;;;21.68;75.27
71248;BME280;73325;51.138;6.950;2023-10-13T09:59:35;100212.00;;;21.78;75.23
71248;BME280;73325;51.138;6.950;2023-10-13T10:01:56;100208.00;;;21.88;75.21
71248;BME280;73325;51.138;6.950;2023-10-13T10:04:27;100206.00;;;21.98;75.20
71248;BME280;73325;51.138;6.950;2023-10-13T10:09:28;100203.00;;;22.18;75.14
71248;BME280;73325;51.138;6.950;2023-10-13T10:17:05;100201.00;;;22.49;75.09
71248;BME280;73325;51.138;6.950;2023-10-13T10:19:29;100202.00;;;22.60;75.07
71248;BME280;73325;51.138;6.950;2023-10-13T10:22:03;100204.00;;;22.71;75.06
71248;BME280;73325;51.138;6.950;2023-10-13T10:24:30;100203.00;;;22.82;75.05
71248;BME280;73325;51.138;6.950;2023-10-13T10:27:02;100203.00;;;22.92;75.04
71248;BME280;73325;51.138;6.950;2023-10-13T10:29:30;100204.00;;;23.03;75.01
71248;BME280;73325;51.138;6.950;2023-10-13T10:32:00;100205.00;;;23.13;75.01
71248;BME280;73325;51.138;6.950;2023-10-13T10:34:31;100204.00;;;23.23;75.00
71248;BME280;73325;51.138;6.950;2023-10-13T10:37:01;100203.00;;;23.34;74.99
71248;BME280;73325;51.138;6.950;2023-10-13T10:39:33;100199.00;;;23.43;74.98
71248;BME280;73325;51.138;6.950;2023-10-13T10:42:09;100197.00;;;23.53;74.97
71248;BME280;73325;51.138;6.950;2023-10-13T10:44:40;100193.00;;;23.62;74.92
71248;BME280;73325;51.138;6.950;2023-10-13T10:47:13;100189.00;;;23.72;74.90
71248;BME280;73325;51.138;6.950;2023-10-13T10:49:36;100185.00;;;23.81;74.86
71248;BME280;73325;51.138;6.950;2023-10-13T10:52:07;100182.00;;;23.89;74.82
71248;BME280;73325;51.138;6.950;2023-10-13T10:54:34;100180.00;;;23.98;74.80
71248;BME280;73325;51.138;6.950;2023-10-13T10:57:04;100178.00;;;24.06;74.76
71248;BME280;73325;51.138;6.950;2023-10-13T10:59:34;100176.00;;;24.15;74.71
71248;BME280;73325;51.138;6.950;2023-10-13T11:02:05;100173.00;;;24.23;74.68
71248;BME280;73325;51.138;6.950;2023-10-13T11:04:35;100167.00;;;24.30;74.64
71248;BME280;73325;51.138;6.950;2023-10-13T11:07:06;100161.00;;;24.39;74.58
71248;BME280;73325;51.138;6.950;2023-10-13T11:09:36;100156.00;;;24.47;74.52
71248;BME280;73325;51.138;6.950;2023-10-13T11:12:10;100151.00;;;24.56;74.44
71248;BME280;73325;51.138;6.950;2023-10-13T11:14:36;100146.00;;;24.65;74.37
71248;BME280;73325;51.138;6.950;2023-10-13T11:17:07;100142.00;;;24.74;74.29
71248;BME280;73325;51.138;6.950;2023-10-13T11:19:41;100140.00;;;24.84;74.19
71248;BME280;73325;51.138;6.950;2023-10-13T11:22:10;100137.00;;;24.94;74.10
71248;BME280;73325;51.138;6.950;2023-10-13T11:24:40;100134.00;;;25.05;74.00
71248;BME280;73325;51.138;6.950;2023-10-13T11:27:15;100130.00;;;25.16;73.91
71248;BME280;73325;51.138;6.950;2023-10-13T11:29:38;100128.00;;;25.27;73.79
71248;BME280;73325;51.138;6.950;2023-10-13T11:32:08;100128.00;;;25.38;73.67
71248;BME280;73325;51.138;6.950;2023-10-13T11:34:38;100126.00;;;25.48;73.53
71248;BME280;73325;51.138;6.950;2023-10-13T11:37:08;100121.00;;;25.58;73.38
71248;BME280;73325;51.138;6.950;2023-10-13T11:39:38;100119.00;;;25.67;73.24
71248;BME280;73325;51.138;6.950;2023-10-13T11:42:08;100114.00;;;25.76;73.08
71248;BME280;73325;51.138;6.950;2023-10-13T11:44:38;100110.00;;;25.84;72.91
71248;BME280;73325;51.138;6.950;2023-10-13T11:47:08;100107.00;;;25.91;72.75
71248;BME280;73325;51.138;6.950;2023-10-13T11:49:38;100105.00;;;25.97;72.57
71248;BME280;73325;51.138;6.950;2023-10-13T11:52:08;100102.00;;;26.03;72.40
71248;BME280;73325;51.138;6.950;2023-10-13T11:54:38;100094.00;;;26.08;72.24
71248;BME280;73325;51.138;6.950;2023-10-13T11:57:08;100090.00;;;26.12;72.07
71248;BME280;73325;51.138;6.950;2023-10-13T11:59:38;100087.00;;;26.16;71.92
71248;BME280;73325;51.138;6.950;2023-10-13T12:02:08;100084.00;;;26.20;71.80
71248;BME280;73325;51.138;6.950;2023-10-13T12:04:39;100083.00;;;26.22;71.69
71248;BME280;73325;51.138;6.950;2023-10-13T12:07:09;100082.00;;;26.25;71.57
71248;BME280;73325;51.138;6.950;2023-10-13T12:09:39;100080.00;;;26.26;71.46
71248;BME280;73325;51.138;6.950;2023-10-13T12:12:09;100077.00;;;26.28;71.33
71248;BME280;73325;51.138;6.950;2023-10-13T12:14:39;100077.00;;;26.29;71.23
71248;BME280;73325;51.138;6.950;2023-10-13T12:17:09;100077.00;;;26.30;71.13
71248;BME280;73325;51.138;6.950;2023-10-13T12:19:45;100074.00;;;26.30;71.01
71248;BME280;73325;51.138;6.950;2023-10-13T12:22:10;100075.00;;;26.30;70.91
71248;BME280;73325;51.138;6.950;2023-10-13T12:24:40;100074.00;;;26.30;70.79
71248;BME280;73325;51.138;6.950;2023-10-13T12:27:10;100071.00;;;26.29;70.69
71248;BME280;73325;51.138;6.950;2023-10-13T12:29:40;100070.00;;;26.28;70.57
71248;BME280;73325;51.138;6.950;2023-10-13T12:32:10;100069.00;;;26.27;70.44
71248;BME280;73325;51.138;6.950;2023-10-13T12:34:41;100067.00;;;26.25;70.34
71248;BME280;73325;51.138;6.950;2023-10-13T12:37:11;100066.00;;;26.23;70.25
71248;BME280;73325;51.138;6.950;2023-10-13T12:39:41;100063.00;;;26.21;70.15
71248;BME280;73325;51.138;6.950;2023-10-13T12:42:11;100060.00;;;26.19;70.08
71248;BME280;73325;51.138;6.950;2023-10-13T12:44:41;100058.00;;;26.16;69.97
71248;BME280;73325;51.138;6.950;2023-10-13T12:47:11;100058.00;;;26.14;69.91
71248;BME280;73325;51.138;6.950;2023-10-13T12:49:41;100057.00;;;26.11;69.86
71248;BME280;73325;51.138;6.950;2023-10-13T12:52:11;100057.00;;;26.08;69.80
71248;BME280;73325;51.138;6.950;2023-10-13T12:54:42;100056.00;;;26.04;69.76
71248;BME280;73325;51.138;6.950;2023-10-13T12:57:15;100054.00;;;26.01;69.73
71248;BME280;73325;51.138;6.950;2023-10-13T12:59:43;100052.00;;;25.98;69.69
71248;BME280;73325;51.138;6.950;2023-10-13T13:02:13;100049.00;;;25.94;69.68
71248;BME280;73325;51.138;6.950;2023-10-13T13:04:43;100047.00;;;25.91;69.68
71248;BME280;73325;51.138;6.950;2023-10-13T13:07:13;100047.00;;;25.88;69.66
71248;BME280;73325;51.138;6.950;2023-10-13T13:09:43;100048.00;;;25.85;69.66
71248;BME280;73325;51.138;6.950;2023-10-13T13:12:13;100048.00;;;25.82;69.66
71248;BME280;73325;51.138;6.950;2023-10-13T13:14:43;100049.00;;;25.79;69.66